sensor_id;sensor_type;location;lat;lon;timestamp;P1;durP1;ratioP1;P2;durP2;ratioP2
48554;SDS011;34336;48.270;16.716;2024-03-07T00:00:06;18.80;;;12.20;;
48554;SDS011;34336;48.270;16.716;2024-03-07T00:02:42;16.80;;;11.77;;
48554;SDS011;34336;48.270;16.716;2024-03-07T00:05:10;16.88;;;11.85;;
48554;SDS011;34336;48.270;16.716;2024-03-07T00:07:39;19.83;;;11.82;;
48554;SDS011;34336;48.270;16.716;2024-03-07T00:10:07;17.65;;;11.63;;
48554;SDS011;34336;48.270;16.716;2024-03-07T00:12:39;15.80;;;10.90;;
48554;SDS011;34336;48.270;16.716;2024-03-07T00:15:07;18.42;;;12.00;;
48554;SDS011;34336;48.270;16.716;2024-03-07T00:17:38;18.13;;;11.65;;
48554;SDS011;34336;48.270;16.716;2024-03-07T00:20:06;17.13;;;11.50;;
48554;SDS011;34336;48.270;16.716;2024-03-07T00:22:42;17.27;;;11.25;;
48554;SDS011;34336;48.270;16.716;2024-03-07T00:25:10;18.15;;;11.50;;
48554;SDS011;34336;48.270;16.716;2024-03-07T00:27:41;19.83;;;11.45;;
48554;SDS011;34336;48.270;16.716;2024-03-07T00:30:12;17.70;;;11.30;;
48554;SDS011;34336;48.270;16.716;2024-03-07T00:32:46;17.15;;;11.50;;
48554;SDS011;34336;48.270;16.716;2024-03-07T00:35:15;17.40;;;11.57;;
48554;SDS011;34336;48.270;16.716;2024-03-07T00:37:43;16.83;;;11.63;;
48554;SDS011;34336;48.270;16.716;2024-03-07T00:40:11;17.75;;;12.30;;
48554;SDS011;34336;48.270;16.716;2024-03-07T00:42:39;20.45;;;13.27;;
48554;SDS011;34336;48.270;16.716;2024-03-07T00:45:07;17.38;;;12.63;;
48554;SDS011;34336;48.270;16.716;2024-03-07T00:47:35;15.93;;;10.95;;
48554;SDS011;34336;48.270;16.716;2024-03-07T00:50:05;19.33;;;12.38;;
48554;SDS011;34336;48.270;16.716;2024-03-07T00:52:36;17.77;;;11.63;;
48554;SDS011;34336;48.270;16.716;2024-03-07T00:55:03;16.00;;;11.13;;
48554;SDS011;34336;48.270;16.716;2024-03-07T00:57:31;18.27;;;12.02;;
48554;SDS011;34336;48.270;16.716;2024-03-07T00:59:59;17.75;;;11.18;;
48554;SDS011;34336;48.270;16.716;2024-03-07T01:02:26;18.05;;;11.18;;
48554;SDS011;34336;48.270;16.716;2024-03-07T01:04:54;17.85;;;10.80;;
48554;SDS011;34336;48.270;16.716;2024-03-07T01:07:22;18.55;;;11.68;;
48554;SDS011;34336;48.270;16.716;2024-03-07T01:09:50;19.73;;;12.10;;
48554;SDS011;34336;48.270;16.716;2024-03-07T01:12:18;19.13;;;12.70;;
48554;SDS011;34336;48.270;16.716;2024-03-07T01:14:49;19.27;;;11.93;;
48554;SDS011;34336;48.270;16.716;2024-03-07T01:17:17;17.95;;;11.60;;
48554;SDS011;34336;48.270;16.716;2024-03-07T01:19:44;17.48;;;11.48;;
48554;SDS011;34336;48.270;16.716;2024-03-07T01:22:12;16.30;;;11.45;;
48554;SDS011;34336;48.270;16.716;2024-03-07T01:24:39;18.58;;;12.13;;
48554;SDS011;34336;48.270;16.716;2024-03-07T01:27:07;17.77;;;12.05;;
48554;SDS011;34336;48.270;16.716;2024-03-07T01:29:35;18.30;;;11.73;;
48554;SDS011;34336;48.270;16.716;2024-03-07T01:32:02;17.50;;;12.13;;
48554;SDS011;34336;48.270;16.716;2024-03-07T01:34:30;19.83;;;12.52;;
48554;SDS011;34336;48.270;16.716;2024-03-07T01:36:58;19.00;;;11.70;;
48554;SDS011;34336;48.270;16.716;2024-03-07T01:39:25;18.08;;;11.98;;
48554;SDS011;34336;48.270;16.716;2024-03-07T01:41:53;17.17;;;11.40;;
48554;SDS011;34336;48.270;16.716;2024-03-07T01:44:21;18.95;;;11.65;;
48554;SDS011;34336;48.270;16.716;2024-03-07T01:46:48;20.17;;;12.40;;
48554;SDS011;34336;48.270;16.716;2024-03-07T01:49:17;18.58;;;12.52;;
48554;SDS011;34336;48.270;16.716;2024-03-07T01:51:45;19.05;;;12.13;;
48554;SDS011;34336;48.270;16.716;2024-03-07T01:54:12;17.83;;;11.80;;
48554;SDS011;34336;48.270;16.716;2024-03-07T01:56:40;19.52;;;12.23;;
48554;SDS011;34336;48.270;16.716;2024-03-07T01:59:08;20.13;;;12.68;;
48554;SDS011;34336;48.270;16.716;2024-03-07T02:01:36;19.00;;;12.80;;
48554;SDS011;34336;48.270;16.716;2024-03-07T02:04:05;17.15;;;11.68;;
48554;SDS011;34336;48.270;16.716;2024-03-07T02:06:34;19.58;;;12.32;;
48554;SDS011;34336;48.270;16.716;2024-03-07T02:09:02;20.02;;;12.85;;
48554;SDS011;34336;48.270;16.716;2024-03-07T02:11:31;19.17;;;11.43;;
48554;SDS011;34336;48.270;16.716;2024-03-07T02:13:59;18.77;;;11.55;;
48554;SDS011;34336;48.270;16.716;2024-03-07T02:16:26;13.85;;;9.93;;
48554;SDS011;34336;48.270;16.716;2024-03-07T02:18:54;17.60;;;10.48;;
48554;SDS011;34336;48.270;16.716;2024-03-07T02:21:22;17.60;;;10.88;;
48554;SDS011;34336;48.270;16.716;2024-03-07T02:23:50;16.27;;;10.73;;
48554;SDS011;34336;48.270;16.716;2024-03-07T02:26:18;16.77;;;10.93;;
48554;SDS011;34336;48.270;16.716;2024-03-07T02:28:46;15.50;;;10.15;;
48554;SDS011;34336;48.270;16.716;2024-03-07T02:31:13;15.43;;;10.10;;
48554;SDS011;34336;48.270;16.716;2024-03-07T02:33:41;15.60;;;10.63;;
48554;SDS011;34336;48.270;16.716;2024-03-07T02:36:08;14.35;;;10.20;;
48554;SDS011;34336;48.270;16.716;2024-03-07T02:38:36;19.10;;;10.43;;
48554;SDS011;34336;48.270;16.716;2024-03-07T02:41:04;17.08;;;9.98;;
48554;SDS011;34336;48.270;16.716;2024-03-07T02:43:32;16.08;;;10.20;;
48554;SDS011;34336;48.270;16.716;2024-03-07T02:46:04;15.95;;;9.52;;
48554;SDS011;34336;48.270;16.716;2024-03-07T02:48:33;14.90;;;10.70;;
48554;SDS011;34336;48.270;16.716;2024-03-07T02:51:00;18.08;;;10.35;;
48554;SDS011;34336;48.270;16.716;2024-03-07T02:53:28;16.25;;;11.18;;
48554;SDS011;34336;48.270;16.716;2024-03-07T02:55:56;16.95;;;10.45;;
48554;SDS011;34336;48.270;16.716;2024-03-07T02:58:24;17.92;;;10.70;;
48554;SDS011;34336;48.270;16.716;2024-03-07T03:00:56;17.85;;;10.80;;
48554;SDS011;34336;48.270;16.716;2024-03-07T03:03:25;17.65;;;10.63;;
48554;SDS011;34336;48.270;16.716;2024-03-07T03:05:52;18.10;;;10.98;;
48554;SDS011;34336;48.270;16.716;2024-03-07T03:08:20;17.27;;;10.60;;
48554;SDS011;34336;48.270;16.716;2024-03-07T03:10:49;16.33;;;10.35;;
48554;SDS011;34336;48.270;16.716;2024-03-07T03:13:18;16.95;;;10.50;;
48554;SDS011;34336;48.270;16.716;2024-03-07T03:15:45;15.32;;;9.38;;
48554;SDS011;34336;48.270;16.716;2024-03-07T03:18:13;14.43;;;9.43;;
48554;SDS011;34336;48.270;16.716;2024-03-07T03:20:41;13.15;;;8.80;;
48554;SDS011;34336;48.270;16.716;2024-03-07T03:23:10;14.80;;;8.48;;
48554;SDS011;34336;48.270;16.716;2024-03-07T03:25:47;13.88;;;9.07;;
48554;SDS011;34336;48.270;16.716;2024-03-07T03:28:16;12.57;;;8.50;;
48554;SDS011;34336;48.270;16.716;2024-03-07T03:30:47;11.85;;;8.77;;
48554;SDS011;34336;48.270;16.716;2024-03-07T03:33:14;14.52;;;9.38;;
48554;SDS011;34336;48.270;16.716;2024-03-07T03:35:42;12.15;;;9.25;;
48554;SDS011;34336;48.270;16.716;2024-03-07T03:38:11;13.35;;;8.65;;
48554;SDS011;34336;48.270;16.716;2024-03-07T03:40:39;13.80;;;9.70;;
48554;SDS011;34336;48.270;16.716;2024-03-07T03:43:06;13.32;;;9.13;;
48554;SDS011;34336;48.270;16.716;2024-03-07T03:45:34;13.35;;;8.90;;
48554;SDS011;34336;48.270;16.716;2024-03-07T03:48:02;14.45;;;9.30;;
48554;SDS011;34336;48.270;16.716;2024-03-07T03:50:30;13.55;;;9.85;;
48554;SDS011;34336;48.270;16.716;2024-03-07T03:52:58;13.68;;;9.50;;
48554;SDS011;34336;48.270;16.716;2024-03-07T03:55:28;13.43;;;9.50;;
48554;SDS011;34336;48.270;16.716;2024-03-07T03:57:56;13.73;;;9.60;;
48554;SDS011;34336;48.270;16.716;2024-03-07T04:00:23;14.48;;;9.95;;
48554;SDS011;34336;48.270;16.716;2024-03-07T04:02:51;15.70;;;10.60;;
48554;SDS011;34336;48.270;16.716;2024-03-07T04:05:19;16.77;;;11.10;;
48554;SDS011;34336;48.270;16.716;2024-03-07T04:07:48;16.40;;;11.10;;
48554;SDS011;34336;48.270;16.716;2024-03-07T04:10:16;15.18;;;10.38;;
48554;SDS011;34336;48.270;16.716;2024-03-07T04:12:44;17.05;;;11.23;;
48554;SDS011;34336;48.270;16.716;2024-03-07T04:15:13;16.67;;;11.70;;
48554;SDS011;34336;48.270;16.716;2024-03-07T04:17:45;16.75;;;11.27;;
48554;SDS011;34336;48.270;16.716;2024-03-07T04:20:14;16.80;;;11.10;;
48554;SDS011;34336;48.270;16.716;2024-03-07T04:22:46;16.20;;;11.65;;
48554;SDS011;34336;48.270;16.716;2024-03-07T04:25:13;16.55;;;11.68;;
48554;SDS011;34336;48.270;16.716;2024-03-07T04:27:41;17.17;;;11.63;;
48554;SDS011;34336;48.270;16.716;2024-03-07T04:30:09;19.73;;;12.27;;
48554;SDS011;34336;48.270;16.716;2024-03-07T04:32:37;16.90;;;11.98;;
48554;SDS011;34336;48.270;16.716;2024-03-07T04:35:06;17.10;;;11.63;;
48554;SDS011;34336;48.270;16.716;2024-03-07T04:37:35;19.45;;;12.93;;
48554;SDS011;34336;48.270;16.716;2024-03-07T04:40:07;17.75;;;12.65;;
48554;SDS011;34336;48.270;16.716;2024-03-07T04:42:45;19.35;;;12.60;;
48554;SDS011;34336;48.270;16.716;2024-03-07T04:45:14;18.48;;;12.93;;
48554;SDS011;34336;48.270;16.716;2024-03-07T04:47:42;20.08;;;13.30;;
48554;SDS011;34336;48.270;16.716;2024-03-07T04:50:11;17.63;;;12.63;;
48554;SDS011;34336;48.270;16.716;2024-03-07T04:52:40;17.55;;;13.02;;
48554;SDS011;34336;48.270;16.716;2024-03-07T04:55:08;20.60;;;13.13;;
48554;SDS011;34336;48.270;16.716;2024-03-07T04:57:39;18.45;;;12.88;;
48554;SDS011;34336;48.270;16.716;2024-03-07T05:00:11;17.33;;;12.63;;
48554;SDS011;34336;48.270;16.716;2024-03-07T05:02:44;17.88;;;12.70;;
48554;SDS011;34336;48.270;16.716;2024-03-07T05:05:13;19.02;;;13.52;;
48554;SDS011;34336;48.270;16.716;2024-03-07T05:07:41;18.13;;;13.07;;
48554;SDS011;34336;48.270;16.716;2024-03-07T05:10:09;17.77;;;12.73;;
48554;SDS011;34336;48.270;16.716;2024-03-07T05:12:37;21.00;;;13.57;;
48554;SDS011;34336;48.270;16.716;2024-03-07T05:15:05;18.55;;;12.57;;
48554;SDS011;34336;48.270;16.716;2024-03-07T05:17:33;15.80;;;11.50;;
48554;SDS011;34336;48.270;16.716;2024-03-07T05:20:03;18.42;;;11.40;;
48554;SDS011;34336;48.270;16.716;2024-03-07T05:22:38;18.95;;;12.15;;
48554;SDS011;34336;48.270;16.716;2024-03-07T05:25:18;16.58;;;12.20;;
48554;SDS011;34336;48.270;16.716;2024-03-07T05:27:46;16.67;;;12.68;;
48554;SDS011;34336;48.270;16.716;2024-03-07T05:30:16;18.13;;;12.48;;
48554;SDS011;34336;48.270;16.716;2024-03-07T05:32:44;17.58;;;11.77;;
48554;SDS011;34336;48.270;16.716;2024-03-07T05:35:12;16.17;;;12.18;;
48554;SDS011;34336;48.270;16.716;2024-03-07T05:37:41;16.50;;;11.77;;
48554;SDS011;34336;48.270;16.716;2024-03-07T05:40:13;15.02;;;11.13;;
48554;SDS011;34336;48.270;16.716;2024-03-07T05:42:41;16.52;;;11.07;;
48554;SDS011;34336;48.270;16.716;2024-03-07T05:45:09;16.92;;;11.20;;
48554;SDS011;34336;48.270;16.716;2024-03-07T05:47:37;17.00;;;11.75;;
48554;SDS011;34336;48.270;16.716;2024-03-07T05:50:05;17.17;;;11.77;;
48554;SDS011;34336;48.270;16.716;2024-03-07T05:52:34;18.27;;;11.57;;
48554;SDS011;34336;48.270;16.716;2024-03-07T05:55:03;16.65;;;11.73;;
48554;SDS011;34336;48.270;16.716;2024-03-07T05:57:33;17.55;;;12.02;;
48554;SDS011;34336;48.270;16.716;2024-03-07T06:00:01;16.77;;;12.18;;
48554;SDS011;34336;48.270;16.716;2024-03-07T06:02:37;16.55;;;11.60;;
48554;SDS011;34336;48.270;16.716;2024-03-07T06:05:05;15.80;;;11.02;;
48554;SDS011;34336;48.270;16.716;2024-03-07T06:07:36;16.05;;;10.82;;
48554;SDS011;34336;48.270;16.716;2024-03-07T06:10:04;15.73;;;10.73;;
48554;SDS011;34336;48.270;16.716;2024-03-07T06:12:38;15.63;;;10.88;;
48554;SDS011;34336;48.270;16.716;2024-03-07T06:15:30;16.67;;;11.43;;
48554;SDS011;34336;48.270;16.716;2024-03-07T06:17:57;17.23;;;11.35;;
48554;SDS011;34336;48.270;16.716;2024-03-07T06:20:26;16.17;;;10.80;;
48554;SDS011;34336;48.270;16.716;2024-03-07T06:22:54;15.98;;;10.20;;
48554;SDS011;34336;48.270;16.716;2024-03-07T06:25:23;15.15;;;10.10;;
48554;SDS011;34336;48.270;16.716;2024-03-07T06:28:04;17.27;;;10.30;;
48554;SDS011;34336;48.270;16.716;2024-03-07T06:30:38;14.98;;;10.75;;
48554;SDS011;34336;48.270;16.716;2024-03-07T06:33:06;14.75;;;9.77;;
48554;SDS011;34336;48.270;16.716;2024-03-07T06:35:35;15.32;;;10.98;;
48554;SDS011;34336;48.270;16.716;2024-03-07T06:38:04;14.95;;;9.90;;
48554;SDS011;34336;48.270;16.716;2024-03-07T06:40:35;14.05;;;9.13;;
48554;SDS011;34336;48.270;16.716;2024-03-07T06:43:03;13.90;;;10.13;;
48554;SDS011;34336;48.270;16.716;2024-03-07T06:45:33;15.07;;;10.30;;
48554;SDS011;34336;48.270;16.716;2024-03-07T06:48:05;14.82;;;9.88;;
48554;SDS011;34336;48.270;16.716;2024-03-07T06:50:37;15.57;;;9.90;;
48554;SDS011;34336;48.270;16.716;2024-03-07T06:53:05;12.65;;;9.23;;
48554;SDS011;34336;48.270;16.716;2024-03-07T06:55:36;14.63;;;9.35;;
48554;SDS011;34336;48.270;16.716;2024-03-07T06:58:05;15.75;;;9.27;;
48554;SDS011;34336;48.270;16.716;2024-03-07T07:00:33;17.50;;;11.20;;
48554;SDS011;34336;48.270;16.716;2024-03-07T07:03:04;13.40;;;9.20;;
48554;SDS011;34336;48.270;16.716;2024-03-07T07:05:33;12.98;;;8.80;;
48554;SDS011;34336;48.270;16.716;2024-03-07T07:08:01;15.32;;;9.57;;
48554;SDS011;34336;48.270;16.716;2024-03-07T07:10:29;12.75;;;9.18;;
48554;SDS011;34336;48.270;16.716;2024-03-07T07:12:56;15.40;;;9.82;;
48554;SDS011;34336;48.270;16.716;2024-03-07T07:15:24;17.02;;;9.80;;
48554;SDS011;34336;48.270;16.716;2024-03-07T07:17:52;13.43;;;9.10;;
48554;SDS011;34336;48.270;16.716;2024-03-07T07:20:20;15.73;;;10.15;;
48554;SDS011;34336;48.270;16.716;2024-03-07T07:22:47;16.52;;;10.48;;
48554;SDS011;34336;48.270;16.716;2024-03-07T07:25:15;15.10;;;10.10;;
48554;SDS011;34336;48.270;16.716;2024-03-07T07:27:44;14.27;;;9.60;;
48554;SDS011;34336;48.270;16.716;2024-03-07T07:30:12;17.05;;;10.18;;
48554;SDS011;34336;48.270;16.716;2024-03-07T07:32:40;17.25;;;10.60;;
48554;SDS011;34336;48.270;16.716;2024-03-07T07:35:10;15.85;;;10.02;;
48554;SDS011;34336;48.270;16.716;2024-03-07T07:37:38;16.98;;;10.00;;
48554;SDS011;34336;48.270;16.716;2024-03-07T07:40:07;17.17;;;10.35;;
48554;SDS011;34336;48.270;16.716;2024-03-07T07:42:35;17.00;;;10.25;;
48554;SDS011;34336;48.270;16.716;2024-03-07T07:45:06;17.52;;;10.38;;
48554;SDS011;34336;48.270;16.716;2024-03-07T07:47:34;15.57;;;9.70;;
48554;SDS011;34336;48.270;16.716;2024-03-07T07:50:04;14.48;;;9.25;;
48554;SDS011;34336;48.270;16.716;2024-03-07T07:52:40;17.00;;;10.63;;
48554;SDS011;34336;48.270;16.716;2024-03-07T07:55:08;16.20;;;10.65;;
48554;SDS011;34336;48.270;16.716;2024-03-07T07:57:42;15.85;;;10.23;;
48554;SDS011;34336;48.270;16.716;2024-03-07T08:00:14;15.75;;;10.60;;
48554;SDS011;34336;48.270;16.716;2024-03-07T08:02:57;18.83;;;11.13;;
48554;SDS011;34336;48.270;16.716;2024-03-07T08:05:27;15.88;;;10.68;;
48554;SDS011;34336;48.270;16.716;2024-03-07T08:07:56;16.30;;;11.57;;
48554;SDS011;34336;48.270;16.716;2024-03-07T08:10:24;14.77;;;10.90;;
48554;SDS011;34336;48.270;16.716;2024-03-07T08:12:55;20.00;;;11.40;;
48554;SDS011;34336;48.270;16.716;2024-03-07T08:15:25;16.13;;;10.82;;
48554;SDS011;34336;48.270;16.716;2024-03-07T08:17:52;19.38;;;11.05;;
48554;SDS011;34336;48.270;16.716;2024-03-07T08:20:22;18.73;;;11.40;;
48554;SDS011;34336;48.270;16.716;2024-03-07T08:22:50;19.45;;;11.35;;
48554;SDS011;34336;48.270;16.716;2024-03-07T08:25:20;19.25;;;11.88;;
48554;SDS011;34336;48.270;16.716;2024-03-07T08:27:48;22.52;;;11.88;;
48554;SDS011;34336;48.270;16.716;2024-03-07T08:30:16;19.75;;;12.20;;
48554;SDS011;34336;48.270;16.716;2024-03-07T08:35:12;18.67;;;11.55;;
48554;SDS011;34336;48.270;16.716;2024-03-07T08:37:40;18.20;;;12.25;;
48554;SDS011;34336;48.270;16.716;2024-03-07T08:40:08;17.65;;;11.73;;
48554;SDS011;34336;48.270;16.716;2024-03-07T08:42:37;19.38;;;12.25;;
48554;SDS011;34336;48.270;16.716;2024-03-07T08:45:05;20.58;;;11.80;;
48554;SDS011;34336;48.270;16.716;2024-03-07T08:47:37;21.33;;;12.63;;
48554;SDS011;34336;48.270;16.716;2024-03-07T08:50:05;21.73;;;12.73;;
48554;SDS011;34336;48.270;16.716;2024-03-07T08:52:35;22.33;;;12.15;;
48554;SDS011;34336;48.270;16.716;2024-03-07T08:55:12;19.77;;;12.10;;
48554;SDS011;34336;48.270;16.716;2024-03-07T08:57:41;20.55;;;11.88;;
48554;SDS011;34336;48.270;16.716;2024-03-07T09:00:10;18.83;;;11.75;;
48554;SDS011;34336;48.270;16.716;2024-03-07T09:02:42;18.42;;;11.27;;
48554;SDS011;34336;48.270;16.716;2024-03-07T09:05:10;20.67;;;11.45;;
48554;SDS011;34336;48.270;16.716;2024-03-07T09:07:38;18.17;;;11.52;;
48554;SDS011;34336;48.270;16.716;2024-03-07T09:10:05;17.33;;;11.07;;
48554;SDS011;34336;48.270;16.716;2024-03-07T09:12:33;18.30;;;11.48;;
48554;SDS011;34336;48.270;16.716;2024-03-07T09:15:01;19.00;;;11.98;;
48554;SDS011;34336;48.270;16.716;2024-03-07T09:17:29;18.70;;;11.35;;
48554;SDS011;34336;48.270;16.716;2024-03-07T09:19:57;20.20;;;12.32;;
48554;SDS011;34336;48.270;16.716;2024-03-07T09:22:24;18.33;;;11.23;;
48554;SDS011;34336;48.270;16.716;2024-03-07T09:24:52;18.08;;;11.98;;
48554;SDS011;34336;48.270;16.716;2024-03-07T09:27:20;18.08;;;11.63;;
48554;SDS011;34336;48.270;16.716;2024-03-07T09:29:48;21.13;;;12.32;;
48554;SDS011;34336;48.270;16.716;2024-03-07T09:32:16;18.50;;;12.40;;
48554;SDS011;34336;48.270;16.716;2024-03-07T09:34:44;20.25;;;12.45;;
48554;SDS011;34336;48.270;16.716;2024-03-07T09:37:13;19.60;;;12.23;;
48554;SDS011;34336;48.270;16.716;2024-03-07T09:39:40;18.92;;;12.80;;
48554;SDS011;34336;48.270;16.716;2024-03-07T09:42:08;21.90;;;12.65;;
48554;SDS011;34336;48.270;16.716;2024-03-07T09:44:38;20.02;;;12.77;;
48554;SDS011;34336;48.270;16.716;2024-03-07T09:47:06;17.48;;;11.55;;
48554;SDS011;34336;48.270;16.716;2024-03-07T09:49:34;19.88;;;12.07;;
48554;SDS011;34336;48.270;16.716;2024-03-07T09:52:06;20.08;;;13.70;;
48554;SDS011;34336;48.270;16.716;2024-03-07T09:54:40;19.77;;;13.00;;
48554;SDS011;34336;48.270;16.716;2024-03-07T09:57:08;20.48;;;12.85;;
48554;SDS011;34336;48.270;16.716;2024-03-07T09:59:37;20.95;;;13.00;;
48554;SDS011;34336;48.270;16.716;2024-03-07T10:02:06;19.65;;;12.43;;
48554;SDS011;34336;48.270;16.716;2024-03-07T10:04:37;18.73;;;12.88;;
48554;SDS011;34336;48.270;16.716;2024-03-07T10:07:07;20.15;;;13.52;;
48554;SDS011;34336;48.270;16.716;2024-03-07T10:09:39;19.50;;;12.65;;
48554;SDS011;34336;48.270;16.716;2024-03-07T10:12:09;24.02;;;12.75;;
48554;SDS011;34336;48.270;16.716;2024-03-07T10:14:47;20.58;;;12.43;;
48554;SDS011;34336;48.270;16.716;2024-03-07T10:17:16;19.17;;;13.05;;
48554;SDS011;34336;48.270;16.716;2024-03-07T10:19:48;24.08;;;13.85;;
48554;SDS011;34336;48.270;16.716;2024-03-07T10:22:17;19.90;;;13.27;;
48554;SDS011;34336;48.270;16.716;2024-03-07T10:24:49;19.23;;;12.90;;
48554;SDS011;34336;48.270;16.716;2024-03-07T10:27:18;22.75;;;15.18;;
48554;SDS011;34336;48.270;16.716;2024-03-07T10:29:49;20.92;;;14.13;;
48554;SDS011;34336;48.270;16.716;2024-03-07T10:32:20;24.90;;;15.35;;
48554;SDS011;34336;48.270;16.716;2024-03-07T10:34:51;25.13;;;14.60;;
48554;SDS011;34336;48.270;16.716;2024-03-07T10:37:19;21.75;;;14.20;;
48554;SDS011;34336;48.270;16.716;2024-03-07T10:39:52;21.80;;;13.07;;
48554;SDS011;34336;48.270;16.716;2024-03-07T10:42:19;24.83;;;15.13;;
48554;SDS011;34336;48.270;16.716;2024-03-07T10:44:51;22.60;;;14.03;;
48554;SDS011;34336;48.270;16.716;2024-03-07T10:47:22;22.23;;;14.25;;
48554;SDS011;34336;48.270;16.716;2024-03-07T10:55:40;30.35;;;17.75;;
48554;SDS011;34336;48.270;16.716;2024-03-07T11:00:41;33.85;;;19.45;;
48554;SDS011;34336;48.270;16.716;2024-03-07T11:03:12;26.90;;;17.77;;
48554;SDS011;34336;48.270;16.716;2024-03-07T11:05:41;30.85;;;18.50;;
48554;SDS011;34336;48.270;16.716;2024-03-07T11:08:10;30.60;;;18.23;;
48554;SDS011;34336;48.270;16.716;2024-03-07T11:10:39;29.42;;;17.48;;
48554;SDS011;34336;48.270;16.716;2024-03-07T11:13:10;31.77;;;19.42;;
48554;SDS011;34336;48.270;16.716;2024-03-07T11:15:43;31.20;;;19.42;;
48554;SDS011;34336;48.270;16.716;2024-03-07T11:18:11;32.03;;;19.33;;
48554;SDS011;34336;48.270;16.716;2024-03-07T11:20:40;37.97;;;23.83;;
48554;SDS011;34336;48.270;16.716;2024-03-07T11:26:06;29.17;;;17.73;;
48554;SDS011;34336;48.270;16.716;2024-03-07T11:28:40;29.95;;;18.85;;
48554;SDS011;34336;48.270;16.716;2024-03-07T11:31:14;29.65;;;18.67;;
48554;SDS011;34336;48.270;16.716;2024-03-07T11:33:42;30.60;;;18.15;;
48554;SDS011;34336;48.270;16.716;2024-03-07T11:36:44;31.17;;;18.55;;
48554;SDS011;34336;48.270;16.716;2024-03-07T11:42:02;32.92;;;18.92;;
48554;SDS011;34336;48.270;16.716;2024-03-07T11:44:33;30.42;;;18.50;;
48554;SDS011;34336;48.270;16.716;2024-03-07T11:47:06;32.65;;;20.02;;
48554;SDS011;34336;48.270;16.716;2024-03-07T11:49:37;30.67;;;19.20;;
48554;SDS011;34336;48.270;16.716;2024-03-07T11:52:05;32.75;;;18.52;;
48554;SDS011;34336;48.270;16.716;2024-03-07T11:54:39;30.77;;;19.65;;
48554;SDS011;34336;48.270;16.716;2024-03-07T11:57:14;30.17;;;17.98;;
48554;SDS011;34336;48.270;16.716;2024-03-07T11:59:42;31.65;;;19.15;;
48554;SDS011;34336;48.270;16.716;2024-03-07T12:02:14;35.00;;;20.70;;
48554;SDS011;34336;48.270;16.716;2024-03-07T12:04:42;30.75;;;19.05;;
48554;SDS011;34336;48.270;16.716;2024-03-07T12:07:10;31.10;;;18.92;;
48554;SDS011;34336;48.270;16.716;2024-03-07T12:09:38;30.63;;;20.20;;
48554;SDS011;34336;48.270;16.716;2024-03-07T12:12:06;31.52;;;19.27;;
48554;SDS011;34336;48.270;16.716;2024-03-07T12:14:34;34.90;;;19.92;;
48554;SDS011;34336;48.270;16.716;2024-03-07T12:17:02;31.05;;;19.10;;
48554;SDS011;34336;48.270;16.716;2024-03-07T12:19:31;30.42;;;18.42;;
48554;SDS011;34336;48.270;16.716;2024-03-07T12:21:59;31.27;;;19.95;;
48554;SDS011;34336;48.270;16.716;2024-03-07T12:24:28;31.92;;;20.23;;
48554;SDS011;34336;48.270;16.716;2024-03-07T12:27:05;33.95;;;19.98;;
48554;SDS011;34336;48.270;16.716;2024-03-07T12:29:33;30.30;;;19.63;;
48554;SDS011;34336;48.270;16.716;2024-03-07T12:32:01;35.00;;;21.15;;
48554;SDS011;34336;48.270;16.716;2024-03-07T12:34:28;33.58;;;21.20;;
48554;SDS011;34336;48.270;16.716;2024-03-07T12:36:58;35.40;;;20.83;;
48554;SDS011;34336;48.270;16.716;2024-03-07T12:39:26;32.95;;;19.15;;
48554;SDS011;34336;48.270;16.716;2024-03-07T12:41:59;30.02;;;18.92;;
48554;SDS011;34336;48.270;16.716;2024-03-07T12:44:27;34.35;;;20.30;;
48554;SDS011;34336;48.270;16.716;2024-03-07T12:46:56;33.20;;;20.48;;
48554;SDS011;34336;48.270;16.716;2024-03-07T12:49:24;31.80;;;20.92;;
48554;SDS011;34336;48.270;16.716;2024-03-07T12:51:55;34.10;;;22.00;;
48554;SDS011;34336;48.270;16.716;2024-03-07T12:54:26;34.88;;;21.20;;
48554;SDS011;34336;48.270;16.716;2024-03-07T12:56:53;31.58;;;20.65;;
48554;SDS011;34336;48.270;16.716;2024-03-07T12:59:22;45.22;;;28.30;;
48554;SDS011;34336;48.270;16.716;2024-03-07T13:01:51;30.13;;;20.77;;
48554;SDS011;34336;48.270;16.716;2024-03-07T13:04:18;32.75;;;19.55;;
48554;SDS011;34336;48.270;16.716;2024-03-07T13:06:46;29.08;;;17.80;;
48554;SDS011;34336;48.270;16.716;2024-03-07T13:09:14;29.88;;;17.40;;
48554;SDS011;34336;48.270;16.716;2024-03-07T13:11:41;28.73;;;18.23;;
48554;SDS011;34336;48.270;16.716;2024-03-07T13:14:13;29.90;;;17.77;;
48554;SDS011;34336;48.270;16.716;2024-03-07T13:16:41;34.13;;;20.05;;
48554;SDS011;34336;48.270;16.716;2024-03-07T13:19:09;36.33;;;21.92;;
48554;SDS011;34336;48.270;16.716;2024-03-07T13:21:38;36.25;;;22.30;;
48554;SDS011;34336;48.270;16.716;2024-03-07T13:24:06;34.92;;;22.00;;
48554;SDS011;34336;48.270;16.716;2024-03-07T13:26:35;31.88;;;20.02;;
48554;SDS011;34336;48.270;16.716;2024-03-07T13:29:03;33.90;;;19.60;;
48554;SDS011;34336;48.270;16.716;2024-03-07T13:31:31;35.67;;;19.90;;
48554;SDS011;34336;48.270;16.716;2024-03-07T13:34:02;31.05;;;20.23;;
48554;SDS011;34336;48.270;16.716;2024-03-07T13:36:30;32.00;;;18.95;;
48554;SDS011;34336;48.270;16.716;2024-03-07T13:38:58;29.75;;;18.95;;
48554;SDS011;34336;48.270;16.716;2024-03-07T13:41:26;36.05;;;19.85;;
48554;SDS011;34336;48.270;16.716;2024-03-07T13:43:55;36.60;;;21.17;;
48554;SDS011;34336;48.270;16.716;2024-03-07T13:46:23;36.17;;;20.98;;
48554;SDS011;34336;48.270;16.716;2024-03-07T13:48:51;36.53;;;21.98;;
48554;SDS011;34336;48.270;16.716;2024-03-07T13:51:19;34.63;;;21.08;;
48554;SDS011;34336;48.270;16.716;2024-03-07T13:53:47;35.42;;;21.50;;
48554;SDS011;34336;48.270;16.716;2024-03-07T14:04:16;41.28;;;24.30;;
48554;SDS011;34336;48.270;16.716;2024-03-07T14:07:06;39.75;;;22.52;;
48554;SDS011;34336;48.270;16.716;2024-03-07T14:20:49;45.35;;;24.58;;
48554;SDS011;34336;48.270;16.716;2024-03-07T14:31:38;49.55;;;27.52;;
48554;SDS011;34336;48.270;16.716;2024-03-07T14:36:56;47.35;;;26.75;;
48554;SDS011;34336;48.270;16.716;2024-03-07T14:39:25;48.15;;;26.92;;
48554;SDS011;34336;48.270;16.716;2024-03-07T14:41:54;51.60;;;28.75;;
48554;SDS011;34336;48.270;16.716;2024-03-07T14:44:23;48.17;;;27.30;;
48554;SDS011;34336;48.270;16.716;2024-03-07T14:46:54;50.22;;;29.98;;
48554;SDS011;34336;48.270;16.716;2024-03-07T14:49:24;52.08;;;30.02;;
48554;SDS011;34336;48.270;16.716;2024-03-07T14:51:51;51.13;;;28.08;;
48554;SDS011;34336;48.270;16.716;2024-03-07T14:54:26;53.47;;;29.02;;
48554;SDS011;34336;48.270;16.716;2024-03-07T14:56:55;51.67;;;29.50;;
48554;SDS011;34336;48.270;16.716;2024-03-07T14:59:22;53.53;;;29.30;;
48554;SDS011;34336;48.270;16.716;2024-03-07T15:01:50;49.53;;;28.48;;
48554;SDS011;34336;48.270;16.716;2024-03-07T15:04:19;53.15;;;28.60;;
48554;SDS011;34336;48.270;16.716;2024-03-07T15:06:47;47.20;;;28.58;;
48554;SDS011;34336;48.270;16.716;2024-03-07T15:09:15;52.67;;;29.85;;